createdAt,value
2017-06-26T00:01:28.847Z,46.30
2017-06-26T00:03:56.292Z,46.20
2017-06-26T00:06:23.724Z,46.30
2017-06-26T00:08:51.165Z,46.50
2017-06-26T00:11:18.754Z,47.00
2017-06-26T00:13:46.195Z,47.20
2017-06-26T00:16:13.632Z,47.30
2017-06-26T00:18:41.072Z,47.30
2017-06-26T00:21:08.516Z,47.60
2017-06-26T00:23:35.940Z,47.90
2017-06-26T00:26:03.380Z,48.40
2017-06-26T00:28:30.828Z,48.60
2017-06-26T00:30:58.289Z,48.50
2017-06-26T00:33:25.725Z,48.70
2017-06-26T00:35:53.151Z,49.10
2017-06-26T00:38:20.607Z,49.00
2017-06-26T00:40:48.045Z,48.90
2017-06-26T00:43:15.468Z,49.20
2017-06-26T00:45:42.909Z,49.00
2017-06-26T00:48:10.336Z,49.10
2017-06-26T00:50:37.772Z,49.10
2017-06-26T00:53:05.204Z,49.80
2017-06-26T00:55:32.677Z,50.40
2017-06-26T00:58:00.099Z,51.00
2017-06-26T01:00:27.582Z,51.20
2017-06-26T01:02:55.012Z,51.60
2017-06-26T01:05:22.439Z,51.60
2017-06-26T01:07:49.888Z,51.80
2017-06-26T01:10:17.365Z,51.90
2017-06-26T01:12:44.800Z,52.10
2017-06-26T01:15:12.227Z,51.90
2017-06-26T01:17:39.700Z,52.80
2017-06-26T01:20:07.144Z,52.70
2017-06-26T01:22:35.340Z,52.70
2017-06-26T01:25:02.778Z,52.70
2017-06-26T01:27:30.207Z,52.70
2017-06-26T01:29:57.659Z,52.70
2017-06-26T01:32:25.883Z,52.80
2017-06-26T01:34:53.332Z,52.70
2017-06-26T01:37:20.760Z,52.40
2017-06-26T01:39:48.196Z,52.10
2017-06-26T01:42:15.641Z,51.60
2017-06-26T01:44:43.075Z,51.30
2017-06-26T01:47:10.507Z,51.40
2017-06-26T01:49:37.939Z,51.20
2017-06-26T01:52:05.381Z,50.60
2017-06-26T01:54:32.824Z,50.40
2017-06-26T01:57:00.289Z,50.00
2017-06-26T01:59:27.720Z,49.90
2017-06-26T02:01:55.152Z,50.20
2017-06-26T02:04:22.589Z,50.10
2017-06-26T02:06:50.024Z,50.10
2017-06-26T02:09:17.453Z,50.60
2017-06-26T02:11:44.890Z,50.40
2017-06-26T02:14:12.356Z,50.60
2017-06-26T02:16:39.783Z,50.50
2017-06-26T02:19:07.217Z,50.60
2017-06-26T02:21:35.421Z,50.50
2017-06-26T02:24:02.853Z,50.50
2017-06-26T02:26:30.288Z,50.10
2017-06-26T02:28:57.716Z,50.00
2017-06-26T02:31:25.164Z,50.20
2017-06-26T02:33:52.614Z,50.00
2017-06-26T02:36:20.035Z,50.00
2017-06-26T02:38:47.477Z,50.00
2017-06-26T02:41:15.684Z,50.40
2017-06-26T02:43:43.136Z,50.30
2017-06-26T02:46:10.698Z,50.40
2017-06-26T02:48:38.158Z,50.50
2017-06-26T02:51:06.350Z,50.40
2017-06-26T02:53:33.784Z,50.40
2017-06-26T02:56:01.216Z,50.60
2017-06-26T02:58:28.648Z,50.90
2017-06-26T03:00:56.856Z,51.30
2017-06-26T03:03:24.317Z,51.20
2017-06-26T03:05:51.767Z,51.40
2017-06-26T03:08:19.206Z,51.60
2017-06-26T03:10:46.627Z,52.10
2017-06-26T03:13:14.991Z,52.20
2017-06-26T03:15:42.478Z,52.40
2017-06-26T03:18:10.680Z,52.90
2017-06-26T03:20:38.169Z,52.90
2017-06-26T03:23:05.712Z,53.00
2017-06-26T03:25:33.136Z,53.30
2017-06-26T03:28:00.567Z,53.60
2017-06-26T03:30:28.000Z,53.70
2017-06-26T03:32:55.428Z,53.70
2017-06-26T03:35:22.874Z,53.30
2017-06-26T03:37:50.295Z,53.20
2017-06-26T03:40:17.824Z,52.80
2017-06-26T03:42:46.016Z,52.70
2017-06-26T03:45:13.448Z,52.20
2017-06-26T03:47:40.926Z,52.00
2017-06-26T03:50:08.362Z,51.70
2017-06-26T03:52:35.888Z,51.50
2017-06-26T03:55:03.320Z,51.40
2017-06-26T03:57:30.801Z,51.20
2017-06-26T03:59:59.366Z,51.00
2017-06-26T04:02:26.791Z,51.00
2017-06-26T04:04:54.224Z,51.10
2017-06-26T04:07:21.656Z,50.80
2017-06-26T04:09:49.095Z,51.30
2017-06-26T04:12:16.532Z,51.40
2017-06-26T04:14:44.748Z,52.40
2017-06-26T04:17:12.181Z,51.80
2017-06-26T04:19:39.608Z,51.80
2017-06-26T04:22:07.052Z,51.80
2017-06-26T04:24:34.541Z,52.10
2017-06-26T04:27:02.078Z,52.00
2017-06-26T04:29:29.608Z,51.70
2017-06-26T04:31:57.048Z,52.10
2017-06-26T04:34:24.484Z,52.10
2017-06-26T04:36:51.952Z,51.80
2017-06-26T04:39:19.424Z,51.60
2017-06-26T04:41:47.624Z,51.40
2017-06-26T04:44:15.069Z,51.40
2017-06-26T04:46:42.516Z,51.30
2017-06-26T04:49:10.025Z,51.10
2017-06-26T04:51:38.209Z,50.30
2017-06-26T04:54:05.644Z,50.20
2017-06-26T04:56:33.205Z,50.30
2017-06-26T04:59:00.622Z,50.20
2017-06-26T05:01:28.117Z,49.70
2017-06-26T05:03:55.559Z,49.50
2017-06-26T05:06:23.017Z,49.40
2017-06-26T05:08:50.543Z,49.30
2017-06-26T05:11:17.994Z,48.00
2017-06-26T05:13:45.446Z,47.40
2017-06-26T05:16:12.918Z,46.60
2017-06-26T05:18:40.380Z,46.10
2017-06-26T05:21:07.822Z,44.80
2017-06-26T05:23:35.268Z,44.00
2017-06-26T05:26:02.709Z,43.00
2017-06-26T05:28:30.164Z,42.10
2017-06-26T05:30:57.605Z,40.60
2017-06-26T05:33:25.164Z,39.10
2017-06-26T05:35:52.621Z,38.10
2017-06-26T05:38:20.057Z,37.00
2017-06-26T05:40:47.516Z,36.00
2017-06-26T05:43:14.998Z,35.00
2017-06-26T05:45:42.468Z,34.30
2017-06-26T05:48:09.882Z,34.10
2017-06-26T05:50:37.308Z,33.10
2017-06-26T05:53:04.758Z,32.40
2017-06-26T05:55:32.187Z,32.10
2017-06-26T05:58:00.421Z,30.70
2017-06-26T06:00:27.848Z,30.60
2017-06-26T06:02:55.301Z,30.20
2017-06-26T06:05:22.728Z,29.60
2017-06-26T06:07:50.164Z,28.70
2017-06-26T06:10:17.681Z,28.70
2017-06-26T06:12:45.200Z,28.50
2017-06-26T06:15:12.665Z,28.60
2017-06-26T06:17:40.120Z,28.70
2017-06-26T06:20:07.557Z,28.00
2017-06-26T06:22:35.042Z,28.10
2017-06-26T06:25:02.482Z,27.80
2017-06-26T06:27:29.907Z,27.70
2017-06-26T06:29:57.340Z,28.00
2017-06-26T06:32:24.816Z,28.40
2017-06-26T06:34:52.244Z,28.10
2017-06-26T06:37:19.690Z,27.80
2017-06-26T06:39:47.124Z,27.80
2017-06-26T06:42:14.556Z,28.10
2017-06-26T06:44:41.995Z,27.80
2017-06-26T06:47:09.436Z,28.00
2017-06-26T06:49:36.866Z,27.90
2017-06-26T06:52:04.296Z,27.60
2017-06-26T06:54:31.776Z,27.20
2017-06-26T06:56:59.213Z,27.60
2017-06-26T06:59:27.565Z,27.50
2017-06-26T07:01:54.999Z,27.10
2017-06-26T07:04:22.596Z,27.70
2017-06-26T07:06:50.140Z,27.30
2017-06-26T07:09:17.575Z,27.30
2017-06-26T07:11:45.009Z,26.90
2017-06-26T07:14:12.497Z,26.50
2017-06-26T07:16:40.706Z,26.40
2017-06-26T07:19:08.132Z,26.30
2017-06-26T07:21:35.586Z,25.80
2017-06-26T07:24:03.056Z,25.80
2017-06-26T07:26:30.499Z,26.00
2017-06-26T07:28:57.958Z,26.00
2017-06-26T07:31:25.384Z,26.10
2017-06-26T07:33:52.956Z,26.00
2017-06-26T07:36:21.143Z,25.70
2017-06-26T07:38:48.647Z,25.60
2017-06-26T07:41:16.068Z,25.60
2017-06-26T07:43:43.615Z,25.40
2017-06-26T07:46:11.048Z,24.70
2017-06-26T07:48:38.491Z,24.30
2017-06-26T07:51:05.947Z,24.20
2017-06-26T07:53:33.401Z,24.30
2017-06-26T07:56:00.924Z,24.20
2017-06-26T07:58:28.366Z,24.20
2017-06-26T08:00:55.812Z,23.90
2017-06-26T08:03:23.252Z,23.70
2017-06-26T08:05:50.701Z,23.60
2017-06-26T08:08:18.143Z,23.70
2017-06-26T08:10:45.572Z,24.30
2017-06-26T08:13:13.019Z,24.40
2017-06-26T08:15:40.469Z,24.80
2017-06-26T08:18:07.916Z,25.20
2017-06-26T08:20:35.372Z,25.00
2017-06-26T08:23:02.811Z,24.60
2017-06-26T08:25:30.356Z,24.70
2017-06-26T08:27:57.787Z,24.40
2017-06-26T08:30:25.228Z,24.50
2017-06-26T08:32:52.656Z,24.30
2017-06-26T08:35:20.250Z,24.40
2017-06-26T08:37:47.771Z,23.90
2017-06-26T08:40:15.219Z,23.80
2017-06-26T08:42:42.662Z,24.00
2017-06-26T08:45:10.197Z,24.50
2017-06-26T08:47:37.635Z,24.60
2017-06-26T08:50:05.068Z,25.10
2017-06-26T08:52:32.647Z,24.30
2017-06-26T08:55:00.888Z,23.50
2017-06-26T08:57:28.330Z,23.50
2017-06-26T08:59:55.764Z,23.40
2017-06-26T09:02:23.236Z,22.90
2017-06-26T09:04:51.476Z,23.70
2017-06-26T09:07:18.964Z,23.70
2017-06-26T09:09:46.473Z,24.00
2017-06-26T09:12:14.088Z,24.20
2017-06-26T09:14:41.561Z,23.70
2017-06-26T09:17:09.199Z,23.20
2017-06-26T09:19:36.661Z,23.20
2017-06-26T09:22:04.202Z,23.40
2017-06-26T09:24:31.627Z,23.90
2017-06-26T09:26:59.056Z,23.70
2017-06-26T09:29:26.525Z,23.40
2017-06-26T09:31:53.956Z,22.70
2017-06-26T09:34:21.540Z,22.60
2017-06-26T09:36:49.737Z,22.30
2017-06-26T09:39:17.184Z,22.30
2017-06-26T09:41:44.652Z,21.90
2017-06-26T09:44:12.084Z,21.70
2017-06-26T09:46:39.540Z,21.80
2017-06-26T09:49:07.079Z,22.50
2017-06-26T09:51:34.837Z,21.80
2017-06-26T09:54:02.390Z,21.90
2017-06-26T09:56:29.851Z,21.60
2017-06-26T09:58:58.076Z,22.00
2017-06-26T10:01:25.524Z,22.00
2017-06-26T10:03:52.965Z,22.30
2017-06-26T10:06:20.528Z,22.20
2017-06-26T10:08:48.728Z,21.80
2017-06-26T10:11:16.212Z,21.70
2017-06-26T10:13:43.675Z,21.50
2017-06-26T10:16:11.872Z,21.00
2017-06-26T10:18:39.468Z,21.00
2017-06-26T10:21:06.904Z,20.60
2017-06-26T10:23:34.371Z,20.40
2017-06-26T10:26:02.607Z,20.50
2017-06-26T10:28:30.052Z,20.50
2017-06-26T10:30:57.526Z,20.40
2017-06-26T10:33:24.960Z,20.50
2017-06-26T10:35:53.236Z,20.60
2017-06-26T10:38:20.754Z,20.60
2017-06-26T10:40:48.189Z,20.40
2017-06-26T10:43:15.912Z,21.10
2017-06-26T10:45:43.420Z,21.60
2017-06-26T10:48:11.628Z,21.10
2017-06-26T10:50:39.117Z,21.10
2017-06-26T10:53:07.347Z,21.20
2017-06-26T10:55:34.925Z,21.20
2017-06-26T10:58:02.362Z,21.80
2017-06-26T11:00:30.596Z,23.60
2017-06-26T11:02:58.040Z,23.50
2017-06-26T11:05:25.508Z,24.40
2017-06-26T11:07:53.740Z,25.50
2017-06-26T11:10:21.192Z,25.40
2017-06-26T11:12:48.628Z,25.60
2017-06-26T11:15:16.056Z,26.30
2017-06-26T11:17:43.500Z,26.30
2017-06-26T11:20:11.033Z,26.80
2017-06-26T11:22:38.500Z,26.90
2017-06-26T11:25:05.951Z,27.40
2017-06-26T11:27:34.203Z,27.30
2017-06-26T11:30:01.747Z,27.30
2017-06-26T11:32:29.183Z,27.20
2017-06-26T11:34:56.688Z,26.10
2017-06-26T11:37:24.112Z,26.00
2017-06-26T11:39:51.565Z,26.60
2017-06-26T11:42:18.987Z,26.70
2017-06-26T11:44:47.229Z,27.80
2017-06-26T11:47:14.765Z,27.30
2017-06-26T11:49:42.196Z,26.90
2017-06-26T11:52:09.744Z,26.20
2017-06-26T11:54:37.187Z,27.10
2017-06-26T11:57:04.684Z,27.40
2017-06-26T11:59:32.187Z,27.70
2017-06-26T12:01:59.620Z,27.80
2017-06-26T12:04:27.071Z,27.90
2017-06-26T12:06:54.505Z,28.20
2017-06-26T12:09:21.944Z,28.30
2017-06-26T12:11:49.610Z,28.50
2017-06-26T12:14:17.031Z,28.90
2017-06-26T12:16:44.489Z,28.30
2017-06-26T12:19:11.928Z,27.70
2017-06-26T12:21:39.364Z,28.20
2017-06-26T12:24:06.796Z,28.20
2017-06-26T12:26:34.236Z,27.40
2017-06-26T12:29:01.681Z,27.90
2017-06-26T12:31:29.243Z,28.00
2017-06-26T12:33:57.072Z,27.90
2017-06-26T12:36:24.536Z,27.60
2017-06-26T12:38:51.999Z,27.90
2017-06-26T12:41:20.254Z,28.20
2017-06-26T12:43:47.761Z,27.70
2017-06-26T12:46:15.232Z,27.80
2017-06-26T12:48:42.687Z,27.80
2017-06-26T12:51:10.939Z,27.20
2017-06-26T12:53:38.481Z,27.60
2017-06-26T12:56:05.917Z,27.50
2017-06-26T12:58:33.356Z,27.10
2017-06-26T13:01:00.793Z,27.50
2017-06-26T13:03:28.243Z,27.60
2017-06-26T13:05:55.690Z,26.60
2017-06-26T13:08:23.122Z,27.20
2017-06-26T13:10:50.561Z,27.20
2017-06-26T13:13:17.999Z,27.30
2017-06-26T13:15:45.486Z,27.20
2017-06-26T13:18:13.748Z,27.50
2017-06-26T13:20:41.292Z,26.90
2017-06-26T13:23:09.541Z,27.20
2017-06-26T13:25:36.991Z,26.70
2017-06-26T13:28:05.198Z,27.20
2017-06-26T13:30:32.633Z,26.60
2017-06-26T13:33:00.079Z,26.60
2017-06-26T13:35:27.511Z,25.70
2017-06-26T13:37:54.942Z,25.90
2017-06-26T13:40:22.452Z,25.50
2017-06-26T13:42:49.875Z,25.60
2017-06-26T13:45:17.337Z,25.30
2017-06-26T13:47:44.885Z,25.30
2017-06-26T13:50:12.499Z,25.20
2017-06-26T13:52:39.915Z,25.10
2017-06-26T13:55:07.361Z,25.00
2017-06-26T13:57:34.869Z,24.90
2017-06-26T14:00:03.089Z,25.20
2017-06-26T14:02:30.724Z,25.80
2017-06-26T14:04:58.148Z,25.20
2017-06-26T14:07:25.602Z,25.60
2017-06-26T14:09:53.085Z,25.20
2017-06-26T14:12:20.641Z,25.20
2017-06-26T14:14:48.073Z,25.20
2017-06-26T14:17:15.502Z,24.50
2017-06-26T14:19:42.976Z,24.60
2017-06-26T14:22:10.399Z,24.30
2017-06-26T14:24:37.844Z,24.50
2017-06-26T14:27:05.297Z,24.50
2017-06-26T14:29:32.832Z,24.70
2017-06-26T14:32:00.276Z,24.20
2017-06-26T14:34:27.719Z,24.10
2017-06-26T14:36:55.185Z,24.10
2017-06-26T14:39:22.781Z,24.20
2017-06-26T14:41:50.222Z,23.90
2017-06-26T14:44:17.660Z,24.10
2017-06-26T14:46:45.138Z,24.30
2017-06-26T14:49:12.579Z,24.40
2017-06-26T14:51:40.008Z,24.40
2017-06-26T14:54:07.455Z,24.00
2017-06-26T14:56:34.907Z,24.20
2017-06-26T14:59:02.556Z,24.40
2017-06-26T15:01:29.991Z,23.80
2017-06-26T15:03:57.413Z,23.90
2017-06-26T15:06:24.873Z,23.90
2017-06-26T15:08:52.544Z,23.90
2017-06-26T15:11:20.788Z,24.10
2017-06-26T15:13:48.228Z,23.90
2017-06-26T15:16:15.688Z,23.90
2017-06-26T15:18:43.217Z,23.90
2017-06-26T15:21:10.656Z,24.10
2017-06-26T15:23:38.094Z,24.20
2017-06-26T15:26:05.573Z,24.30
2017-06-26T15:28:33.091Z,24.40
2017-06-26T15:31:00.560Z,24.20
2017-06-26T15:33:28.764Z,24.20
2017-06-26T15:35:56.246Z,24.20
2017-06-26T15:38:23.696Z,24.40
2017-06-26T15:40:51.200Z,25.10
2017-06-26T15:43:18.627Z,25.10
2017-06-26T15:45:46.192Z,25.10
2017-06-26T15:48:13.668Z,24.40
2017-06-26T15:50:41.109Z,24.60
2017-06-26T15:53:08.552Z,23.80
2017-06-26T15:55:36.062Z,25.20
2017-06-26T15:58:03.482Z,25.00
2017-06-26T16:00:30.911Z,26.10
2017-06-26T16:02:58.345Z,26.10
2017-06-26T16:05:25.884Z,26.40
2017-06-26T16:07:54.129Z,27.20
2017-06-26T16:10:21.544Z,27.20
2017-06-26T16:12:49.012Z,26.80
2017-06-26T16:15:16.553Z,26.70
2017-06-26T16:17:43.996Z,26.70
2017-06-26T16:20:11.439Z,27.40
2017-06-26T16:22:38.975Z,27.40
2017-06-26T16:25:06.418Z,27.50
2017-06-26T16:27:33.869Z,27.90
2017-06-26T16:30:01.409Z,27.80
2017-06-26T16:32:28.848Z,27.90
2017-06-26T16:34:56.278Z,28.30
2017-06-26T16:37:23.710Z,28.60
2017-06-26T16:39:51.176Z,27.70
2017-06-26T16:42:18.748Z,28.10
2017-06-26T16:44:46.952Z,27.20
2017-06-26T16:47:15.014Z,27.20
2017-06-26T16:49:42.451Z,27.60
2017-06-26T16:52:09.928Z,27.60
2017-06-26T16:54:37.525Z,28.10
2017-06-26T16:57:04.943Z,28.60
2017-06-26T16:59:33.159Z,28.10
2017-06-26T17:02:00.600Z,28.00
2017-06-26T17:04:28.038Z,28.30
2017-06-26T17:06:55.582Z,28.50
2017-06-26T17:09:23.056Z,28.30
2017-06-26T17:11:50.500Z,28.10
2017-06-26T17:14:17.924Z,28.50
2017-06-26T17:16:45.372Z,28.00
2017-06-26T17:19:12.812Z,28.30
2017-06-26T17:21:40.274Z,27.70
2017-06-26T17:24:07.700Z,27.90
2017-06-26T17:26:35.140Z,28.00
2017-06-26T17:29:02.614Z,28.00
2017-06-26T17:31:30.814Z,28.00
2017-06-26T17:33:58.257Z,27.90
2017-06-26T17:36:25.736Z,28.10
2017-06-26T17:38:53.189Z,27.90
2017-06-26T17:41:20.826Z,28.10
2017-06-26T17:43:48.276Z,27.90
2017-06-26T17:46:15.712Z,27.90
2017-06-26T17:48:43.180Z,28.00
2017-06-26T17:51:11.448Z,28.00
2017-06-26T17:53:38.965Z,28.00
2017-06-26T17:56:06.441Z,28.30
2017-06-26T17:58:34.660Z,28.00
2017-06-26T18:01:02.113Z,28.00
2017-06-26T18:03:29.656Z,28.00
2017-06-26T18:05:57.084Z,28.10
2017-06-26T18:08:24.528Z,28.10
2017-06-26T18:10:51.991Z,28.40
2017-06-26T18:13:19.411Z,28.40
2017-06-26T18:15:46.856Z,28.10
2017-06-26T18:18:14.281Z,27.90
2017-06-26T18:20:41.758Z,28.20
2017-06-26T18:23:09.184Z,28.10
2017-06-26T18:25:36.732Z,28.10
2017-06-26T18:28:04.183Z,28.10
2017-06-26T18:30:31.639Z,28.20
2017-06-26T18:32:59.057Z,28.10
2017-06-26T18:35:26.504Z,28.30
2017-06-26T18:37:54.020Z,28.20
2017-06-26T18:40:21.453Z,28.50
2017-06-26T18:42:48.899Z,28.40
2017-06-26T18:45:16.384Z,28.60
2017-06-26T18:47:43.820Z,28.50
2017-06-26T18:50:11.365Z,28.80
2017-06-26T18:52:38.807Z,29.10
2017-06-26T18:55:06.256Z,29.20
2017-06-26T18:57:33.687Z,29.20
2017-06-26T19:00:01.140Z,29.30
2017-06-26T19:02:28.574Z,29.50
2017-06-26T19:04:56.019Z,29.60
2017-06-26T19:07:23.543Z,29.60
2017-06-26T19:09:50.972Z,29.90
2017-06-26T19:12:18.412Z,29.90
2017-06-26T19:14:45.839Z,30.10
2017-06-26T19:17:13.933Z,30.50
2017-06-26T19:19:41.389Z,30.70
2017-06-26T19:22:08.838Z,31.00
2017-06-26T19:24:36.275Z,31.20
2017-06-26T19:27:03.737Z,31.40
2017-06-26T19:29:31.941Z,31.20
2017-06-26T19:31:59.376Z,31.70
2017-06-26T19:34:26.816Z,31.90
2017-06-26T19:36:54.260Z,32.10
2017-06-26T19:39:21.860Z,32.40
2017-06-26T19:41:49.504Z,32.40
2017-06-26T19:44:16.940Z,32.50
2017-06-26T19:46:44.393Z,32.60
2017-06-26T19:49:11.828Z,32.80
2017-06-26T19:51:39.271Z,32.90
2017-06-26T19:54:06.766Z,33.00
2017-06-26T19:56:34.186Z,33.40
2017-06-26T19:59:02.392Z,34.00
2017-06-26T20:01:29.987Z,33.90
2017-06-26T20:03:58.276Z,34.20
2017-06-26T20:06:25.712Z,34.20
2017-06-26T20:08:53.176Z,34.00
2017-06-26T20:11:20.624Z,33.60
2017-06-26T20:13:48.136Z,33.70
2017-06-26T20:16:16.388Z,34.00
2017-06-26T20:18:44.588Z,34.50
2017-06-26T20:21:12.069Z,34.50
2017-06-26T20:23:39.504Z,34.20
2017-06-26T20:26:06.964Z,34.40
2017-06-26T20:28:35.167Z,34.60
2017-06-26T20:31:02.655Z,34.60
2017-06-26T20:33:30.200Z,34.20
2017-06-26T20:35:57.636Z,34.50
2017-06-26T20:38:25.289Z,34.00
2017-06-26T20:40:52.837Z,34.10
2017-06-26T20:43:20.385Z,34.00
2017-06-26T20:45:47.850Z,34.50
2017-06-26T20:48:15.400Z,34.10
2017-06-26T20:50:42.916Z,33.80
2017-06-26T20:53:10.348Z,33.90
2017-06-26T20:55:37.812Z,34.30
2017-06-26T20:58:05.244Z,34.40
2017-06-26T21:00:32.686Z,34.40
2017-06-26T21:03:01.052Z,34.30
2017-06-26T21:05:28.509Z,35.60
2017-06-26T21:07:56.712Z,36.30
2017-06-26T21:10:24.144Z,36.30
2017-06-26T21:12:51.579Z,36.40
2017-06-26T21:15:19.012Z,36.80
2017-06-26T21:17:46.488Z,36.90
2017-06-26T21:20:14.012Z,37.20
2017-06-26T21:22:41.451Z,37.20
2017-06-26T21:25:08.884Z,37.20
2017-06-26T21:27:36.316Z,37.40
2017-06-26T21:30:04.520Z,37.00
2017-06-26T21:32:31.994Z,36.90
2017-06-26T21:34:59.536Z,37.00
2017-06-26T21:37:26.972Z,37.40
2017-06-26T21:39:54.401Z,37.00
2017-06-26T21:42:21.908Z,37.30
2017-06-26T21:44:50.104Z,37.20
2017-06-26T21:47:17.535Z,37.20
2017-06-26T21:49:45.017Z,37.30
2017-06-26T21:52:12.448Z,37.60
2017-06-26T21:54:39.904Z,38.40
2017-06-26T21:57:07.344Z,38.20
2017-06-26T21:59:34.807Z,38.60
2017-06-26T22:02:02.330Z,39.20
2017-06-26T22:04:29.873Z,39.40
2017-06-26T22:06:57.299Z,39.60
2017-06-26T22:09:24.747Z,40.00
2017-06-26T22:11:52.185Z,40.10
2017-06-26T22:14:19.636Z,40.50
2017-06-26T22:16:47.067Z,40.90
2017-06-26T22:19:14.508Z,41.10
2017-06-26T22:21:41.944Z,41.50
2017-06-26T22:24:09.399Z,41.80
2017-06-26T22:26:36.849Z,42.10
2017-06-26T22:29:04.301Z,42.00
2017-06-26T22:31:31.739Z,42.30
2017-06-26T22:33:59.180Z,42.10
2017-06-26T22:36:26.608Z,42.30
2017-06-26T22:38:54.049Z,41.90
2017-06-26T22:41:21.511Z,42.00
2017-06-26T22:43:49.076Z,41.80
2017-06-26T22:46:17.316Z,41.70
2017-06-26T22:48:44.733Z,41.60
2017-06-26T22:51:12.175Z,41.50
2017-06-26T22:53:39.635Z,41.70
2017-06-26T22:56:07.075Z,41.20
2017-06-26T22:58:34.631Z,41.30
2017-06-26T23:01:02.075Z,41.60
2017-06-26T23:03:29.521Z,41.40
2017-06-26T23:05:56.955Z,41.20
2017-06-26T23:08:24.392Z,41.20
2017-06-26T23:10:51.848Z,41.50
2017-06-26T23:13:19.288Z,41.10
2017-06-26T23:15:46.716Z,41.20
2017-06-26T23:18:14.172Z,41.10
2017-06-26T23:20:41.613Z,41.20
2017-06-26T23:23:09.040Z,41.10
2017-06-26T23:25:36.487Z,41.20
2017-06-26T23:28:03.911Z,41.00
2017-06-26T23:30:31.462Z,40.60
2017-06-26T23:32:58.927Z,40.70
2017-06-26T23:35:26.376Z,40.80
2017-06-26T23:37:53.804Z,41.10
2017-06-26T23:40:21.382Z,41.50
2017-06-26T23:42:49.604Z,41.80
2017-06-26T23:45:17.036Z,41.80
2017-06-26T23:47:44.505Z,42.00
2017-06-26T23:50:11.938Z,42.20
2017-06-26T23:52:39.473Z,42.20
2017-06-26T23:55:06.904Z,42.20
2017-06-26T23:57:34.382Z,42.30
